Amelia, NE

7:29 PM CDT on August 02, 2015 (GMT -0500)
105 South Victoria Street | | Change Station
CLOSE
Current Station
Personal Weather Station
Location: Chambers, NE
Elevation: 2119 ft
Nearby Weather Stations

Elev 2119 ft 42.20 °N, 98.75 °W | Updated 3 seconds ago

Clear
Clear
90.1 °F
Feels Like 91 °F
N
2.2
Wind Variable Wind from NNE
Gusts 5.4 mph

Today
High -- | Low -- °F
--% Chance of Precip.
Yesterday
High -- | Low -- °F
Precip. -- in
6:29 AM 8:53 PM
Waning Gibbous, 91% visible
Pressure 29.90 in
Visibility 10.0 miles
Clouds Clear
Heat Index 91 °F
Dew Point 63 °F
Humidity 40%
Rainfall 0.00 in
Snow Depth Not available.
UV 1 out of 12
Pollen 7.60 out of 12
Air Quality Not available.
Flu Activity Not available.
METAR KONL 030015Z AUTO 04007KT 10SM CLR 29/17 A2990 RMK AO2 T02880171

More Conditions Fewer Conditions

Pressure 29.90 in
Visibility 10.0 miles
Clouds Clear
Heat Index 91 °F
Dew Point 63 °F
Humidity 40%
Rainfall 0.00 in
Snow Depth Not available.
UV 1 out of 12
Pollen 7.60 out of 12
Air Quality Not available.
Flu Activity Not available.
METAR KONL 030015Z AUTO 04007KT 10SM CLR 29/17 A2990 RMK AO2 T02880171

More Conditions Fewer Conditions

10-Day Weather Forecast

×

Almanac

Astronomy

Aug. 02, 2015 Rise Set
Actual Time
Civil Twilight
Nautical Twilight
Astronomical Twilight
Moon
Length of Visible Light
Length of Day
Tomorrow will be .
, % of the Moon is Illuminated

Today's Extremes

State Highs State Lows

Community

WunderPhotos

Upload Photos

1,843,455 photos uploaded!

WunderBlogs® & News

Nearby

Air Quality

  Air Quality AQ Index Pollutant
Not available.

Snow Depth

Station Depth Elevation

Earthquake Activity

City Distance Mag. Time & Date
Minimum magnitude displayed is 2.5.

Coastal Water Temperatures

Place Temperature

Stations

Nearby Weather Stations

Station Location Temp. Windchill Dew Point Humidity Wind Precip. Elev Updated Type